Time;durP1;ratioP1;P1;durP2;ratioP2;P2;SDS_P1;SDS_P2;PMS_P1;PMS_P2;Temp;Humidity;BMP_temperature;BMP_pressure;BME280_temperature;BME280_humidity;BME280_pressure;Samples;Min_cycle;Max_cycle;Signal;HPM_P1;HPM_P2
2022/05/17 00:01:24;;;;;;;11.82;10.15;;;;;;;;;;5033346;28;20084;-89
2022/05/17 00:03:51;;;;;;;15.60;11.02;;;;;;;;;;5015771;28;20085;-88
2022/05/17 00:06:18;;;;;;;16.92;12.45;;;;;;;;;;5015614;28;20049;-89
2022/05/17 00:08:45;;;;;;;16.98;14.50;;;;;;;;;;5015909;28;20068;-88
2022/05/17 00:11:15;;;;;;;20.13;15.05;;;;;;;;;;5015277;28;20149;-90
2022/05/17 00:13:42;;;;;;;22.23;16.65;;;;;;;;;;5015831;28;20387;-90
2022/05/17 00:16:09;;;;;;;22.80;16.00;;;;;;;;;;5015470;28;20061;-90
2022/05/17 00:18:37;;;;;;;24.52;16.95;;;;;;;;;;5015801;28;20053;-90
2022/05/17 00:21:04;;;;;;;19.75;16.70;;;;;;;;;;5033157;28;20305;-90
2022/05/17 00:23:32;;;;;;;24.05;16.90;;;;;;;;;;5032546;28;20490;-90
2022/05/17 00:25:59;;;;;;;22.65;18.17;;;;;;;;;;5032487;28;20128;-90
2022/05/17 00:28:27;;;;;;;21.90;16.63;;;;;;;;;;5015691;28;20057;-89
2022/05/17 00:30:55;;;;;;;20.65;16.40;;;;;;;;;;5032983;28;20520;-89
2022/05/17 00:33:22;;;;;;;19.30;15.18;;;;;;;;;;5034654;28;20059;-91
2022/05/17 00:35:49;;;;;;;19.55;15.95;;;;;;;;;;5019064;28;20088;-91
2022/05/17 00:38:19;;;;;;;17.90;14.57;;;;;;;;;;5019282;28;20053;-88
2022/05/17 00:40:47;;;;;;;18.00;13.73;;;;;;;;;;5019149;28;20477;-89
2022/05/17 00:43:15;;;;;;;22.35;13.60;;;;;;;;;;5036324;28;20054;-89
2022/05/17 00:45:44;;;;;;;14.82;12.02;;;;;;;;;;5018967;28;20053;-88
2022/05/17 00:48:12;;;;;;;18.58;12.98;;;;;;;;;;5036145;28;20041;-89
2022/05/17 00:50:41;;;;;;;15.88;9.98;;;;;;;;;;5036221;28;20064;-90
2022/05/17 00:53:11;;;;;;;15.90;10.60;;;;;;;;;;5018844;28;20049;-90
2022/05/17 00:55:42;;;;;;;17.35;11.50;;;;;;;;;;5019040;28;20045;-91
2022/05/17 00:58:13;;;;;;;15.27;10.68;;;;;;;;;;5036046;28;20042;-91
2022/05/17 01:00:45;;;;;;;16.30;10.25;;;;;;;;;;5036254;28;20050;-91
2022/05/17 01:03:14;;;;;;;12.98;9.48;;;;;;;;;;5035897;28;20054;-91
2022/05/17 01:05:45;;;;;;;15.85;9.68;;;;;;;;;;5018684;28;20128;-90
2022/05/17 01:08:14;;;;;;;12.18;9.77;;;;;;;;;;5018674;28;20120;-91
2022/05/17 01:10:41;;;;;;;15.13;10.23;;;;;;;;;;5025408;28;20053;-91
2022/05/17 01:15:54;;;;;;;14.85;8.70;;;;;;;;;;5055370;28;20060;-91
2022/05/17 01:18:22;;;;;;;17.55;10.10;;;;;;;;;;5055835;28;20512;-93
2022/05/17 01:20:49;;;;;;;22.20;9.48;;;;;;;;;;5038312;28;20045;-92
2022/05/17 01:23:16;;;;;;;16.08;8.98;;;;;;;;;;5037953;28;20067;-90
2022/05/17 01:25:44;;;;;;;11.75;8.35;;;;;;;;;;5038421;28;20044;-92
2022/05/17 01:28:17;;;;;;;15.63;8.30;;;;;;;;;;5040980;28;20057;-92
2022/05/17 01:30:46;;;;;;;12.85;7.30;;;;;;;;;;5044633;28;20083;-90
2022/05/17 01:33:14;;;;;;;11.40;6.63;;;;;;;;;;5055467;28;20055;-92
2022/05/17 01:35:41;;;;;;;10.40;6.22;;;;;;;;;;5037643;28;20057;-90
2022/05/17 01:38:09;;;;;;;11.02;5.80;;;;;;;;;;5037945;28;20062;-92
2022/05/17 01:40:37;;;;;;;12.98;5.97;;;;;;;;;;5037759;28;20084;-92
2022/05/17 01:43:04;;;;;;;10.52;5.88;;;;;;;;;;5037625;28;20132;-92
2022/05/17 01:45:32;;;;;;;9.02;5.90;;;;;;;;;;5036462;28;20493;-91
2022/05/17 01:47:59;;;;;;;10.73;6.38;;;;;;;;;;5037511;28;20099;-90
2022/05/17 01:50:27;;;;;;;8.18;5.43;;;;;;;;;;5055430;28;20136;-93
2022/05/17 01:52:54;;;;;;;11.30;5.22;;;;;;;;;;5037511;28;20060;-94
2022/05/17 01:55:21;;;;;;;16.17;6.90;;;;;;;;;;5038141;28;20053;-92
2022/05/17 01:57:49;;;;;;;12.27;6.40;;;;;;;;;;5037691;28;20053;-94
2022/05/17 02:00:19;;;;;;;8.15;5.30;;;;;;;;;;5055570;28;20469;-93
2022/05/17 02:02:47;;;;;;;7.30;5.40;;;;;;;;;;5037358;28;20084;-93
2022/05/17 02:05:16;;;;;;;16.25;5.55;;;;;;;;;;5037175;28;20049;-94
2022/05/17 02:07:44;;;;;;;7.53;5.15;;;;;;;;;;5037112;28;20474;-92
2022/05/17 02:10:12;;;;;;;9.02;5.53;;;;;;;;;;5053897;28;20064;-92
2022/05/17 02:12:39;;;;;;;8.05;5.53;;;;;;;;;;5037104;28;20049;-93
2022/05/17 02:15:07;;;;;;;11.82;6.07;;;;;;;;;;5054377;28;20072;-93
2022/05/17 02:17:37;;;;;;;8.98;5.47;;;;;;;;;;5054360;28;20509;-92
2022/05/17 02:20:08;;;;;;;12.18;5.47;;;;;;;;;;5036955;28;20131;-92
2022/05/17 02:22:36;;;;;;;8.57;5.63;;;;;;;;;;5036535;28;20140;-92
2022/05/17 02:25:03;;;;;;;10.38;6.25;;;;;;;;;;5036385;28;20557;-92
2022/05/17 02:27:30;;;;;;;10.43;5.75;;;;;;;;;;5036881;28;20408;-93
2022/05/17 02:29:58;;;;;;;14.27;6.10;;;;;;;;;;5036693;28;20049;-93
2022/05/17 02:32:25;;;;;;;10.32;6.47;;;;;;;;;;5054221;28;20091;-93
2022/05/17 02:34:52;;;;;;;9.38;5.90;;;;;;;;;;5036085;28;20466;-93
2022/05/17 02:37:19;;;;;;;16.50;6.90;;;;;;;;;;5036608;28;20132;-92
2022/05/17 02:39:47;;;;;;;11.63;6.97;;;;;;;;;;5036517;28;20476;-93
2022/05/17 02:42:14;;;;;;;12.50;6.07;;;;;;;;;;5036483;28;20068;-92
2022/05/17 02:44:41;;;;;;;9.70;5.70;;;;;;;;;;5035936;28;20481;-90
2022/05/17 02:47:09;;;;;;;9.55;6.82;;;;;;;;;;5053864;28;20135;-87
2022/05/17 02:49:40;;;;;;;13.20;7.18;;;;;;;;;;5036013;28;20144;-91
2022/05/17 02:52:08;;;;;;;11.95;6.72;;;;;;;;;;5036367;28;20063;-92
2022/05/17 02:54:35;;;;;;;13.35;6.55;;;;;;;;;;5036118;28;20530;-92
2022/05/17 02:57:02;;;;;;;9.38;5.60;;;;;;;;;;5053833;28;20136;-92
2022/05/17 02:59:29;;;;;;;12.27;6.15;;;;;;;;;;5036482;28;20049;-92
2022/05/17 03:01:56;;;;;;;11.57;5.75;;;;;;;;;;5036444;28;20081;-91
2022/05/17 03:04:26;;;;;;;10.93;6.47;;;;;;;;;;5036125;28;20049;-92
2022/05/17 03:06:53;;;;;;;8.57;6.10;;;;;;;;;;5036342;28;20116;-93
2022/05/17 03:09:21;;;;;;;12.68;6.05;;;;;;;;;;5053863;28;20049;-92
2022/05/17 03:11:48;;;;;;;11.00;5.80;;;;;;;;;;5053500;28;20103;-92
2022/05/17 03:14:21;;;;;;;16.35;7.53;;;;;;;;;;5053502;28;20132;-92
2022/05/17 03:16:48;;;;;;;17.40;9.07;;;;;;;;;;5053482;28;20511;-92
2022/05/17 03:19:17;;;;;;;15.07;7.82;;;;;;;;;;5053694;28;20045;-92
2022/05/17 03:21:44;;;;;;;11.23;6.45;;;;;;;;;;5036073;28;20049;-91
2022/05/17 03:24:12;;;;;;;11.57;6.88;;;;;;;;;;5053314;28;20052;-92
2022/05/17 03:26:59;;;;;;;17.10;9.70;;;;;;;;;;5038717;28;20049;-94
2022/05/17 03:29:28;;;;;;;15.93;8.68;;;;;;;;;;5036588;28;20398;-91
2022/05/17 03:31:55;;;;;;;13.48;8.20;;;;;;;;;;5036013;28;20128;-91
2022/05/17 03:34:23;;;;;;;10.40;7.30;;;;;;;;;;5053766;28;20555;-91
2022/05/17 03:36:50;;;;;;;14.35;8.48;;;;;;;;;;5036252;28;20049;-91
2022/05/17 03:39:18;;;;;;;16.38;9.13;;;;;;;;;;5053404;28;20088;-91
2022/05/17 03:41:45;;;;;;;16.75;8.98;;;;;;;;;;5052574;28;20057;-91
2022/05/17 03:44:12;;;;;;;16.27;9.57;;;;;;;;;;5041122;28;20112;-90
2022/05/17 03:46:39;;;;;;;13.30;9.02;;;;;;;;;;5050959;28;20076;-92
2022/05/17 03:49:09;;;;;;;14.23;8.13;;;;;;;;;;5036286;28;20056;-92
2022/05/17 03:51:36;;;;;;;17.33;10.15;;;;;;;;;;5035622;28;20099;-88
2022/05/17 03:54:03;;;;;;;14.82;9.52;;;;;;;;;;5035807;28;20098;-91
2022/05/17 03:56:30;;;;;;;17.30;9.70;;;;;;;;;;5036114;28;20052;-91
2022/05/17 03:58:58;;;;;;;18.83;9.90;;;;;;;;;;5053335;28;20120;-91
2022/05/17 04:01:25;;;;;;;16.05;8.45;;;;;;;;;;5035542;28;20589;-92
2022/05/17 04:03:52;;;;;;;16.98;8.43;;;;;;;;;;5035225;28;20044;-92
2022/05/17 04:06:23;;;;;;;23.02;8.10;;;;;;;;;;5036221;28;20049;-92
2022/05/17 04:08:50;;;;;;;15.43;8.52;;;;;;;;;;5037170;28;20144;-91
2022/05/17 04:11:17;;;;;;;32.97;8.65;;;;;;;;;;5057236;28;20132;-93
2022/05/17 04:13:45;;;;;;;17.58;9.20;;;;;;;;;;5057025;28;20408;-91
2022/05/17 04:16:12;;;;;;;15.98;9.55;;;;;;;;;;5039507;28;20080;-92
2022/05/17 04:18:39;;;;;;;13.38;8.43;;;;;;;;;;5056881;28;20440;-92
2022/05/17 04:21:07;;;;;;;11.98;7.97;;;;;;;;;;5038979;28;20088;-92
2022/05/17 04:23:34;;;;;;;12.63;8.45;;;;;;;;;;5042768;28;20049;-92
2022/05/17 04:26:01;;;;;;;17.40;8.95;;;;;;;;;;5056594;28;20496;-93
2022/05/17 04:28:28;;;;;;;14.02;9.07;;;;;;;;;;5039370;28;20049;-92
2022/05/17 04:30:56;;;;;;;18.15;9.43;;;;;;;;;;5039072;28;20056;-91
2022/05/17 04:33:24;;;;;;;17.35;11.20;;;;;;;;;;5039060;28;20071;-91
2022/05/17 04:35:51;;;;;;;18.58;9.80;;;;;;;;;;5038346;28;20083;-92
2022/05/17 04:38:18;;;;;;;7.32;6.25;;;;;;;;;;5038952;28;20137;-93
2022/05/17 04:40:45;;;;;;;9.07;5.43;;;;;;;;;;5056344;28;20076;-92
2022/05/17 04:43:13;;;;;;;8.38;6.65;;;;;;;;;;5038613;28;20049;-92
2022/05/17 04:45:41;;;;;;;26.88;17.90;;;;;;;;;;5038857;28;20048;-92
2022/05/17 04:48:09;;;;;;;41.97;26.70;;;;;;;;;;5038788;28;20048;-89
2022/05/17 04:50:36;;;;;;;27.35;18.05;;;;;;;;;;5038321;28;20055;-92
2022/05/17 04:53:04;;;;;;;25.75;9.98;;;;;;;;;;5038647;28;20132;-92
2022/05/17 04:55:31;;;;;;;35.83;11.88;;;;;;;;;;5038850;28;20575;-91
2022/05/17 04:57:58;;;;;;;17.02;8.77;;;;;;;;;;5040853;28;20056;-92
2022/05/17 05:00:26;;;;;;;10.98;7.15;;;;;;;;;;5075541;28;20094;-91
2022/05/17 05:02:54;;;;;;;21.65;7.28;;;;;;;;;;5074879;28;20049;-92
2022/05/17 05:05:22;;;;;;;19.52;7.85;;;;;;;;;;5074476;28;20412;-90
2022/05/17 05:07:50;;;;;;;13.93;7.53;;;;;;;;;;5075772;28;20420;-91
2022/05/17 05:10:18;;;;;;;13.35;6.88;;;;;;;;;;5075946;28;20080;-93
2022/05/17 05:12:45;;;;;;;18.88;6.60;;;;;;;;;;5075122;28;20112;-93
2022/05/17 05:15:12;;;;;;;12.48;5.75;;;;;;;;;;5075460;28;20045;-92
2022/05/17 05:17:40;;;;;;;10.43;5.60;;;;;;;;;;5074400;28;20045;-93
2022/05/17 05:20:09;;;;;;;10.88;7.05;;;;;;;;;;5074453;28;20080;-92
2022/05/17 05:22:36;;;;;;;11.13;5.60;;;;;;;;;;5075038;28;20044;-94
2022/05/17 05:25:10;;;;;;;14.68;6.53;;;;;;;;;;5075173;28;20489;-93
2022/05/17 05:27:38;;;;;;;11.20;6.00;;;;;;;;;;5074781;28;20087;-91
2022/05/17 05:30:06;;;;;;;11.30;6.57;;;;;;;;;;5057830;28;20090;-93
2022/05/17 05:32:33;;;;;;;9.25;5.38;;;;;;;;;;5074856;28;20140;-93
2022/05/17 05:35:00;;;;;;;13.68;6.88;;;;;;;;;;5075753;28;20074;-93
2022/05/17 05:37:27;;;;;;;14.35;8.25;;;;;;;;;;5077198;28;20091;-94
2022/05/17 05:39:54;;;;;;;8.32;7.45;;;;;;;;;;5075786;28;20071;-92
2022/05/17 05:42:21;;;;;;;11.55;6.68;;;;;;;;;;5075093;28;20048;-94
2022/05/17 05:44:49;;;;;;;14.10;7.60;;;;;;;;;;5072061;28;20053;-96
2022/05/17 05:47:17;;;;;;;12.10;7.40;;;;;;;;;;5075252;28;20075;-94
2022/05/17 05:49:44;;;;;;;12.15;7.78;;;;;;;;;;5074228;28;20055;-95
2022/05/17 05:52:15;;;;;;;12.35;7.70;;;;;;;;;;5075270;28;20393;-94
2022/05/17 05:54:42;;;;;;;14.80;7.53;;;;;;;;;;5074296;28;20078;-93
2022/05/17 05:57:10;;;;;;;13.05;6.43;;;;;;;;;;5073626;28;20132;-93
2022/05/17 05:59:38;;;;;;;9.88;5.80;;;;;;;;;;5074209;28;20123;-95
2022/05/17 06:02:06;;;;;;;10.77;5.50;;;;;;;;;;5070719;28;20104;-92
2022/05/17 06:04:34;;;;;;;12.45;5.47;;;;;;;;;;5092274;28;20394;-92
2022/05/17 06:07:01;;;;;;;8.35;4.70;;;;;;;;;;5077442;28;20035;-94
2022/05/17 06:09:28;;;;;;;12.55;4.32;;;;;;;;;;5077308;28;20059;-92
2022/05/17 06:11:56;;;;;;;11.02;4.60;;;;;;;;;;5075883;28;20097;-93
2022/05/17 06:14:23;;;;;;;7.75;3.08;;;;;;;;;;5074759;28;20095;-96
2022/05/17 06:16:51;;;;;;;8.20;3.80;;;;;;;;;;5074092;28;20076;-96
2022/05/17 06:19:19;;;;;;;6.60;3.95;;;;;;;;;;5074665;28;20101;-94
2022/05/17 06:21:46;;;;;;;12.93;3.58;;;;;;;;;;5073715;28;20079;-93
2022/05/17 06:24:14;;;;;;;9.05;3.45;;;;;;;;;;5074072;28;20045;-94
2022/05/17 06:26:41;;;;;;;7.55;3.38;;;;;;;;;;5073572;28;20086;-95
2022/05/17 06:29:09;;;;;;;7.53;4.03;;;;;;;;;;5070487;28;20084;-94
2022/05/17 06:31:36;;;;;;;6.78;3.88;;;;;;;;;;5066043;28;20052;-94
2022/05/17 06:34:03;;;;;;;8.32;3.83;;;;;;;;;;5065191;28;20053;-96
2022/05/17 06:36:30;;;;;;;6.15;3.33;;;;;;;;;;5073330;28;20138;-95
2022/05/17 06:39:17;;;;;;;6.13;2.85;;;;;;;;;;5073338;28;20041;-96
2022/05/17 06:41:45;;;;;;;7.65;3.40;;;;;;;;;;5073564;28;20066;-95
2022/05/17 06:44:12;;;;;;;6.20;3.63;;;;;;;;;;5074022;28;20055;-93
2022/05/17 06:46:39;;;;;;;6.85;4.15;;;;;;;;;;5073520;28;20076;-94
2022/05/17 06:49:06;;;;;;;9.95;4.30;;;;;;;;;;5073213;28;20502;-93
2022/05/17 06:51:35;;;;;;;9.35;3.80;;;;;;;;;;5073183;28;20075;-94
2022/05/17 06:54:02;;;;;;;6.50;4.00;;;;;;;;;;5073196;28;20065;-88
2022/05/17 06:56:30;;;;;;;9.43;3.63;;;;;;;;;;5074187;28;20466;-90
2022/05/17 06:58:57;;;;;;;6.93;4.07;;;;;;;;;;5073260;28;20080;-93
2022/05/17 07:01:24;;;;;;;9.80;3.88;;;;;;;;;;5072642;28;20467;-94
2022/05/17 07:03:51;;;;;;;9.48;3.55;;;;;;;;;;5072803;28;20527;-94
2022/05/17 07:06:18;;;;;;;6.93;3.55;;;;;;;;;;5072651;28;20075;-94
2022/05/17 07:08:45;;;;;;;6.47;3.67;;;;;;;;;;5072917;28;20491;-94
2022/05/17 07:13:59;;;;;;;12.35;3.85;;;;;;;;;;5044421;28;20053;-89
2022/05/17 07:16:26;;;;;;;5.90;3.53;;;;;;;;;;5052565;28;20557;-92
2022/05/17 07:18:53;;;;;;;8.10;3.33;;;;;;;;;;5052213;28;20063;-96
2022/05/17 07:21:41;;;;;;;9.32;3.72;;;;;;;;;;5051887;28;20486;-93
2022/05/17 07:24:08;;;;;;;9.38;3.55;;;;;;;;;;5053787;28;20131;-92
2022/05/17 07:26:35;;;;;;;7.72;3.42;;;;;;;;;;5052745;28;20663;-93
2022/05/17 07:29:02;;;;;;;8.13;3.67;;;;;;;;;;5052795;28;20073;-95
2022/05/17 07:31:30;;;;;;;5.40;2.75;;;;;;;;;;5053441;28;20068;-95
2022/05/17 07:33:58;;;;;;;6.10;3.05;;;;;;;;;;5055148;28;20136;-94
2022/05/17 07:36:25;;;;;;;5.93;2.85;;;;;;;;;;5053442;28;20053;-96
2022/05/17 07:38:53;;;;;;;7.85;2.53;;;;;;;;;;5052325;28;20083;-94
2022/05/17 07:41:20;;;;;;;9.20;2.90;;;;;;;;;;5052578;28;20069;-95
2022/05/17 07:43:47;;;;;;;7.60;2.53;;;;;;;;;;5053833;28;20076;-93
2022/05/17 07:46:14;;;;;;;4.75;2.38;;;;;;;;;;5056026;28;20068;-94
2022/05/17 07:48:41;;;;;;;5.60;2.67;;;;;;;;;;5056068;28;20051;-94
2022/05/17 07:51:09;;;;;;;6.25;2.28;;;;;;;;;;5056114;28;20137;-92
2022/05/17 07:53:40;;;;;;;8.40;2.30;;;;;;;;;;5056034;28;20114;-94
2022/05/17 07:56:07;;;;;;;5.55;2.35;;;;;;;;;;5056395;28;20565;-93
2022/05/17 07:58:34;;;;;;;6.00;2.53;;;;;;;;;;5056491;28;20136;-94
2022/05/17 08:01:02;;;;;;;7.60;2.10;;;;;;;;;;5055907;28;20055;-93
2022/05/17 08:03:30;;;;;;;5.95;2.70;;;;;;;;;;5056381;28;20463;-93
2022/05/17 08:05:59;;;;;;;5.88;2.70;;;;;;;;;;5055462;28;20049;-90
2022/05/17 08:08:26;;;;;;;8.30;2.42;;;;;;;;;;5056294;28;20107;-93
2022/05/17 08:10:54;;;;;;;7.63;3.00;;;;;;;;;;5056326;28;20137;-94
2022/05/17 08:13:22;;;;;;;7.28;2.90;;;;;;;;;;5056777;28;20482;-95
2022/05/17 08:15:50;;;;;;;6.18;2.60;;;;;;;;;;5056680;28;20091;-95
2022/05/17 08:18:17;;;;;;;7.50;3.00;;;;;;;;;;5058756;28;20049;-95
2022/05/17 08:20:45;;;;;;;4.82;2.30;;;;;;;;;;5073173;28;20045;-96
2022/05/17 08:23:13;;;;;;;8.43;3.25;;;;;;;;;;5070865;28;20513;-93
2022/05/17 08:28:26;;;;;;;5.10;2.03;;;;;;;;;;5057382;28;20128;-95
2022/05/17 08:30:53;;;;;;;6.80;3.00;;;;;;;;;;5061469;28;20048;-96
2022/05/17 08:33:23;;;;;;;3.90;1.95;;;;;;;;;;5058418;28;20083;-96
2022/05/17 08:36:00;;;;;;;6.97;3.20;;;;;;;;;;5068637;23;20072;-88
2022/05/17 08:38:32;;;;;;;7.15;3.17;;;;;;;;;;5061994;28;20044;-87
2022/05/17 08:40:59;;;;;;;7.82;3.42;;;;;;;;;;5062852;28;20112;-85
2022/05/17 08:43:32;;;;;;;6.38;3.08;;;;;;;;;;5065891;28;20570;-84
2022/05/17 08:46:09;;;;;;;8.48;3.40;;;;;;;;;;5061505;28;20102;-85
2022/05/17 08:48:50;;;;;;;8.25;3.50;;;;;;;;;;5059118;28;20082;-85
2022/05/17 08:51:18;;;;;;;7.15;3.25;;;;;;;;;;5076106;28;20052;-84
2022/05/17 08:53:46;;;;;;;4.55;2.95;;;;;;;;;;5057780;28;20041;-85
2022/05/17 08:56:13;;;;;;;4.57;2.63;;;;;;;;;;5058663;28;20076;-85
2022/05/17 08:58:42;;;;;;;9.40;3.20;;;;;;;;;;5058234;28;20068;-86
2022/05/17 09:01:15;;;;;;;5.60;2.85;;;;;;;;;;5076070;28;20048;-85
2022/05/17 09:03:42;;;;;;;5.60;2.30;;;;;;;;;;5058153;28;20072;-86
2022/05/17 09:06:13;;;;;;;4.07;2.67;;;;;;;;;;5059061;28;20456;-84
2022/05/17 09:08:49;;;;;;;7.50;2.60;;;;;;;;;;5059143;28;20056;-86
2022/05/17 09:11:20;;;;;;;7.13;2.92;;;;;;;;;;5075593;28;20478;-85
2022/05/17 09:13:47;;;;;;;4.78;2.15;;;;;;;;;;5058858;28;20131;-84
2022/05/17 09:16:36;;;;;;;10.23;2.90;;;;;;;;;;5075649;28;20512;-87
2022/05/17 09:19:03;;;;;;;6.30;3.00;;;;;;;;;;5058534;28;20048;-85
2022/05/17 09:21:33;;;;;;;5.95;2.97;;;;;;;;;;5058754;28;20040;-85
2022/05/17 09:24:04;;;;;;;6.05;2.65;;;;;;;;;;5058249;28;20442;-86
2022/05/17 09:26:32;;;;;;;8.50;2.88;;;;;;;;;;5057533;28;20513;-86
2022/05/17 09:29:16;;;;;;;6.30;2.63;;;;;;;;;;5057589;28;20131;-87
2022/05/17 09:31:50;;;;;;;9.57;2.65;;;;;;;;;;5058054;28;20095;-86
2022/05/17 09:34:21;;;;;;;5.72;2.28;;;;;;;;;;5057423;28;20102;-85
2022/05/17 09:36:52;;;;;;;7.75;2.90;;;;;;;;;;5057571;28;20055;-85
2022/05/17 09:39:29;;;;;;;7.55;2.83;;;;;;;;;;5057783;28;20284;-86
2022/05/17 09:41:59;;;;;;;6.07;2.58;;;;;;;;;;5057308;28;20080;-86
2022/05/17 09:44:42;;;;;;;14.40;2.58;;;;;;;;;;5059666;28;20040;-85
2022/05/17 09:47:15;;;;;;;7.78;2.00;;;;;;;;;;5057099;28;20084;-85
2022/05/17 09:55:11;;;;;;;8.73;2.70;;;;;;;;;;5075090;28;20074;-86
2022/05/17 09:57:50;;;;;;;5.80;2.00;;;;;;;;;;5074833;28;20143;-86
2022/05/17 10:00:22;;;;;;;6.00;3.00;;;;;;;;;;5058117;28;20059;-85
2022/05/17 10:02:51;;;;;;;7.00;2.47;;;;;;;;;;5057322;28;20061;-85
2022/05/17 10:05:21;;;;;;;8.60;2.60;;;;;;;;;;5074818;28;20044;-86
2022/05/17 10:07:55;;;;;;;3.95;2.30;;;;;;;;;;5074909;28;20064;-87
2022/05/17 10:10:36;;;;;;;4.18;1.95;;;;;;;;;;5056916;28;20048;-85
2022/05/17 10:13:24;;;;;;;4.40;2.10;;;;;;;;;;5057047;28;20041;-86
2022/05/17 10:15:56;;;;;;;6.43;2.33;;;;;;;;;;5057024;28;20052;-87
2022/05/17 10:18:26;;;;;;;5.47;2.40;;;;;;;;;;5082149;28;20055;-83
2022/05/17 10:20:57;;;;;;;5.93;1.98;;;;;;;;;;5066938;28;20067;-88
2022/05/17 10:23:33;;;;;;;6.53;2.22;;;;;;;;;;5056598;28;20080;-86
2022/05/17 10:26:03;;;;;;;6.22;2.10;;;;;;;;;;5056062;28;20048;-87
2022/05/17 10:28:46;;;;;;;4.05;1.80;;;;;;;;;;5074183;28;20485;-88
2022/05/17 10:31:24;;;;;;;4.38;1.55;;;;;;;;;;5056283;28;20053;-88
2022/05/17 10:33:52;;;;;;;4.32;1.63;;;;;;;;;;5055920;28;20080;-86
2022/05/17 10:36:25;;;;;;;6.50;1.70;;;;;;;;;;5056491;28;20055;-88
2022/05/17 10:39:08;;;;;;;6.60;1.60;;;;;;;;;;5056423;28;20075;-87
2022/05/17 10:41:35;;;;;;;3.30;1.88;;;;;;;;;;5055791;28;20056;-86
2022/05/17 10:44:03;;;;;;;4.05;1.63;;;;;;;;;;5074089;28;20079;-91
2022/05/17 10:46:31;;;;;;;7.75;1.95;;;;;;;;;;5055731;28;20109;-88
2022/05/17 10:48:58;;;;;;;2.50;1.30;;;;;;;;;;5055770;28;20501;-85
2022/05/17 10:51:28;;;;;;;5.20;1.30;;;;;;;;;;5055903;28;20079;-88
2022/05/17 10:53:58;;;;;;;3.92;1.30;;;;;;;;;;5055946;28;20044;-87
2022/05/17 10:56:44;;;;;;;2.53;1.10;;;;;;;;;;5055964;28;20071;-88
2022/05/17 10:59:11;;;;;;;2.80;0.90;;;;;;;;;;5055868;28;20131;-86
2022/05/17 11:01:42;;;;;;;6.28;1.30;;;;;;;;;;5055727;28;20498;-88
2022/05/17 11:04:12;;;;;;;4.30;1.58;;;;;;;;;;5056254;28;20056;-87
2022/05/17 11:06:48;;;;;;;6.45;1.70;;;;;;;;;;5055802;28;20041;-88
2022/05/17 11:09:15;;;;;;;7.75;1.55;;;;;;;;;;5073254;28;20482;-88
2022/05/17 11:11:49;;;;;;;2.05;1.83;;;;;;;;;;5055818;28;20097;-87
2022/05/17 11:14:16;;;;;;;;;;;;;;;;;;5056106;28;20063;-84
2022/05/17 11:16:49;;;;;;;3.83;1.48;;;;;;;;;;5055623;28;19946;-88
2022/05/17 11:19:26;;;;;;;2.75;1.60;;;;;;;;;;5057073;28;20048;-88
2022/05/17 11:22:05;;;;;;;2.80;1.40;;;;;;;;;;5055336;28;20087;-88
2022/05/17 11:24:52;;;;;;;6.47;1.48;;;;;;;;;;5055204;28;20048;-88
2022/05/17 11:27:36;;;;;;;2.50;1.35;;;;;;;;;;5055144;28;20052;-87
2022/05/17 11:30:03;;;;;;;7.72;1.60;;;;;;;;;;5055092;28;20052;-86
2022/05/17 11:32:32;;;;;;;5.22;1.33;;;;;;;;;;5055030;28;20508;-86
2022/05/17 11:35:04;;;;;;;5.32;1.67;;;;;;;;;;5054967;28;20076;-88
2022/05/17 11:37:36;;;;;;;4.05;1.70;;;;;;;;;;5055042;28;20132;-88
2022/05/17 11:40:05;;;;;;;3.58;1.20;;;;;;;;;;5055116;28;20083;-87
2022/05/17 11:42:34;;;;;;;3.22;1.23;;;;;;;;;;5056745;28;20116;-89
2022/05/17 11:45:18;;;;;;;2.33;1.20;;;;;;;;;;5058131;28;20048;-88
2022/05/17 11:47:45;;;;;;;4.68;1.33;;;;;;;;;;5060156;28;20131;-89
2022/05/17 11:50:15;;;;;;;1.73;1.50;;;;;;;;;;5057608;28;20045;-89
2022/05/17 11:52:45;;;;;;;1.60;1.27;;;;;;;;;;5058992;28;20048;-88
2022/05/17 11:55:29;;;;;;;3.33;1.30;;;;;;;;;;5057875;28;20056;-90
2022/05/17 11:57:58;;;;;;;3.33;1.30;;;;;;;;;;5056460;28;20498;-89
2022/05/17 12:00:27;;;;;;;4.78;1.83;;;;;;;;;;5058435;28;20086;-88
2022/05/17 12:02:59;;;;;;;2.25;1.02;;;;;;;;;;5056014;28;20108;-90
2022/05/17 12:05:41;;;;;;;5.30;1.20;;;;;;;;;;5056183;28;20040;-90
2022/05/17 12:08:35;;;;;;;3.90;1.48;;;;;;;;;;5057263;28;20052;-90
2022/05/17 12:11:05;;;;;;;6.82;2.10;;;;;;;;;;5055709;28;20049;-90
2022/05/17 12:14:02;;;;;;;5.47;1.48;;;;;;;;;;5056812;28;20098;-89
2022/05/17 12:16:31;;;;;;;4.05;1.40;;;;;;;;;;5056306;28;20052;-88
2022/05/17 12:19:07;;;;;;;2.63;1.35;;;;;;;;;;5060544;28;20048;-89
2022/05/17 12:21:46;;;;;;;1.90;1.25;;;;;;;;;;5057945;28;20052;-90
2022/05/17 12:24:13;;;;;;;5.40;1.55;;;;;;;;;;5058822;28;20117;-89
2022/05/17 12:27:01;;;;;;;3.50;1.00;;;;;;;;;;5057547;28;20044;-89
2022/05/17 12:32:20;;;;;;;2.10;1.20;;;;;;;;;;5084479;28;20079;-86
2022/05/17 12:34:53;;;;;;;1.67;1.20;;;;;;;;;;5070268;28;20045;-86
2022/05/17 12:37:24;;;;;;;2.38;0.90;;;;;;;;;;5078287;28;20071;-87
2022/05/17 12:45:26;;;;;;;4.00;1.30;;;;;;;;;;5075760;28;20063;-86
2022/05/17 12:47:54;;;;;;;2.80;1.42;;;;;;;;;;5058083;28;20064;-85
2022/05/17 12:50:25;;;;;;;4.57;1.42;;;;;;;;;;5058146;28;20472;-85
2022/05/17 12:52:57;;;;;;;3.35;0.90;;;;;;;;;;5057810;28;20049;-86
2022/05/17 12:55:26;;;;;;;4.88;1.30;;;;;;;;;;5059750;28;20045;-86
2022/05/17 12:57:53;;;;;;;2.28;1.17;;;;;;;;;;5059242;28;20045;-87
2022/05/17 13:00:23;;;;;;;8.70;2.15;;;;;;;;;;5075721;28;20137;-91
2022/05/17 13:02:59;;;;;;;3.55;1.30;;;;;;;;;;5058046;28;20524;-89
2022/05/17 13:05:28;;;;;;;4.45;1.10;;;;;;;;;;5059043;28;20049;-89
2022/05/17 13:08:01;;;;;;;4.80;0.90;;;;;;;;;;5057561;28;20076;-88
2022/05/17 13:10:28;;;;;;;3.95;1.10;;;;;;;;;;5057747;28;20469;-89
2022/05/17 13:12:55;;;;;;;6.25;1.38;;;;;;;;;;5057674;28;20044;-88
2022/05/17 13:15:24;;;;;;;5.28;1.23;;;;;;;;;;5058003;28;20072;-88
2022/05/17 13:17:54;;;;;;;1.63;0.95;;;;;;;;;;5057773;28;20412;-88
2022/05/17 13:20:29;;;;;;;3.47;1.00;;;;;;;;;;5057621;28;20486;-88
2022/05/17 13:22:58;;;;;;;3.58;1.20;;;;;;;;;;5058508;28;20045;-89
2022/05/17 13:25:52;;;;;;;2.83;0.98;;;;;;;;;;5057448;28;20049;-88
2022/05/17 13:28:24;;;;;;;2.03;1.08;;;;;;;;;;5054000;28;20512;-88
2022/05/17 13:31:01;;;;;;;5.38;1.02;;;;;;;;;;5058026;28;20080;-90
2022/05/17 13:33:32;;;;;;;3.17;1.00;;;;;;;;;;5057202;28;20055;-89
2022/05/17 13:36:07;;;;;;;7.05;1.63;;;;;;;;;;5057733;28;20071;-90
2022/05/17 13:38:37;;;;;;;1.77;0.90;;;;;;;;;;5057375;28;20099;-87
2022/05/17 13:41:14;;;;;;;1.92;0.98;;;;;;;;;;5057359;28;20052;-88
2022/05/17 13:43:42;;;;;;;4.47;0.88;;;;;;;;;;5056882;28;20048;-88
2022/05/17 13:46:18;;;;;;;5.28;1.05;;;;;;;;;;5056735;28;20102;-89
2022/05/17 13:48:49;;;;;;;3.50;1.05;;;;;;;;;;5057685;28;20045;-89
2022/05/17 13:51:28;;;;;;;1.88;1.05;;;;;;;;;;5058561;28;20511;-86
2022/05/17 13:54:15;;;;;;;1.98;0.90;;;;;;;;;;5074626;28;20154;-90
2022/05/17 13:57:04;;;;;;;2.53;1.17;;;;;;;;;;5056696;28;20049;-89
2022/05/17 13:59:31;;;;;;;3.70;1.05;;;;;;;;;;5057763;28;20079;-89
2022/05/17 14:02:01;;;;;;;2.35;1.00;;;;;;;;;;5057442;28;20052;-89
2022/05/17 14:04:40;;;;;;;2.25;1.05;;;;;;;;;;5056807;28;20056;-87
2022/05/17 14:07:30;;;;;;;2.22;1.02;;;;;;;;;;5056953;28;20080;-88
2022/05/17 14:13:08;;;;;;;2.22;0.90;;;;;;;;;;5074339;28;20060;-89
2022/05/17 14:15:37;;;;;;;3.90;1.40;;;;;;;;;;5056776;28;20049;-87
2022/05/17 14:18:05;;;;;;;3.20;1.20;;;;;;;;;;5057414;28;20044;-89
2022/05/17 14:20:33;;;;;;;6.93;1.27;;;;;;;;;;5056571;28;20040;-89
2022/05/17 14:23:01;;;;;;;1.95;1.15;;;;;;;;;;5056280;28;20044;-89
2022/05/17 14:25:28;;;;;;;3.42;0.90;;;;;;;;;;5057224;28;20449;-85
2022/05/17 14:27:57;;;;;;;2.08;0.77;;;;;;;;;;5074177;28;20044;-85
2022/05/17 14:30:25;;;;;;;1.60;1.00;;;;;;;;;;5057819;28;20060;-88
2022/05/17 14:32:55;;;;;;;3.83;1.00;;;;;;;;;;5073704;28;20052;-89
2022/05/17 14:35:24;;;;;;;4.75;1.20;;;;;;;;;;5073631;28;20105;-89
2022/05/17 14:37:54;;;;;;;4.07;1.10;;;;;;;;;;5056933;28;20497;-87
2022/05/17 14:40:22;;;;;;;3.70;1.48;;;;;;;;;;5055904;28;20094;-89
2022/05/17 14:42:49;;;;;;;8.68;1.38;;;;;;;;;;5055813;28;20052;-88
2022/05/17 14:45:18;;;;;;;5.22;1.30;;;;;;;;;;5056497;28;20060;-88
2022/05/17 14:47:48;;;;;;;1.63;0.73;;;;;;;;;;5062854;28;20028;-88
2022/05/17 14:50:18;;;;;;;1.80;0.80;;;;;;;;;;5073808;28;20048;-88
2022/05/17 14:52:46;;;;;;;4.70;1.35;;;;;;;;;;5055455;28;20045;-88
2022/05/17 14:55:13;;;;;;;1.52;0.80;;;;;;;;;;5056402;28;20048;-88
2022/05/17 14:57:41;;;;;;;2.35;0.98;;;;;;;;;;5055495;28;20049;-86
2022/05/17 15:00:09;;;;;;;5.60;1.35;;;;;;;;;;5055653;28;20048;-87
2022/05/17 15:02:38;;;;;;;5.40;1.20;;;;;;;;;;5055815;28;20052;-90
2022/05/17 15:05:07;;;;;;;7.45;1.38;;;;;;;;;;5055700;28;20456;-90
2022/05/17 15:07:37;;;;;;;2.70;1.38;;;;;;;;;;5072934;28;20072;-89
2022/05/17 15:10:09;;;;;;;4.82;1.65;;;;;;;;;;5056311;28;20048;-87
2022/05/17 15:12:37;;;;;;;6.47;1.75;;;;;;;;;;5055373;28;20048;-89
2022/05/17 15:15:04;;;;;;;4.00;1.30;;;;;;;;;;5055292;28;20098;-89
2022/05/17 15:17:32;;;;;;;3.22;1.05;;;;;;;;;;5055628;28;20044;-87
2022/05/17 15:20:04;;;;;;;4.75;1.45;;;;;;;;;;5055352;28;20391;-89